sensor_id;sensor_type;location;lat;lon;timestamp;temperature;humidity
15288;DHT22;7745;48.708;9.026;2023-02-17T00:02:20;7.90;99.90
15288;DHT22;7745;48.708;9.026;2023-02-17T00:04:48;7.80;99.90
15288;DHT22;7745;48.708;9.026;2023-02-17T00:07:15;7.80;99.90
15288;DHT22;7745;48.708;9.026;2023-02-17T00:09:41;7.80;99.90
15288;DHT22;7745;48.708;9.026;2023-02-17T00:12:08;7.80;99.90
15288;DHT22;7745;48.708;9.026;2023-02-17T00:14:37;7.80;99.90
15288;DHT22;7745;48.708;9.026;2023-02-17T00:17:04;7.70;99.90
15288;DHT22;7745;48.708;9.026;2023-02-17T00:19:30;7.70;99.90
15288;DHT22;7745;48.708;9.026;2023-02-17T00:21:59;7.70;99.90
15288;DHT22;7745;48.708;9.026;2023-02-17T00:24:28;7.70;99.90
15288;DHT22;7745;48.708;9.026;2023-02-17T00:26:55;7.70;99.90
15288;DHT22;7745;48.708;9.026;2023-02-17T00:29:22;7.70;99.90
15288;DHT22;7745;48.708;9.026;2023-02-17T00:31:51;7.70;99.90
15288;DHT22;7745;48.708;9.026;2023-02-17T00:34:19;7.70;99.90
15288;DHT22;7745;48.708;9.026;2023-02-17T00:36:46;7.70;99.90
15288;DHT22;7745;48.708;9.026;2023-02-17T00:39:15;7.70;99.90
15288;DHT22;7745;48.708;9.026;2023-02-17T00:41:42;7.70;99.90
15288;DHT22;7745;48.708;9.026;2023-02-17T00:44:14;7.70;99.90
15288;DHT22;7745;48.708;9.026;2023-02-17T00:46:42;7.80;99.90
15288;DHT22;7745;48.708;9.026;2023-02-17T00:49:14;7.80;99.90
15288;DHT22;7745;48.708;9.026;2023-02-17T00:51:41;7.80;99.90
15288;DHT22;7745;48.708;9.026;2023-02-17T00:54:08;7.80;99.90
15288;DHT22;7745;48.708;9.026;2023-02-17T00:56:36;7.80;99.90
15288;DHT22;7745;48.708;9.026;2023-02-17T00:59:03;7.80;99.90
15288;DHT22;7745;48.708;9.026;2023-02-17T01:01:31;7.80;99.90
15288;DHT22;7745;48.708;9.026;2023-02-17T01:03:58;7.80;99.90
15288;DHT22;7745;48.708;9.026;2023-02-17T01:06:26;7.90;99.90
15288;DHT22;7745;48.708;9.026;2023-02-17T01:08:54;7.80;99.90
15288;DHT22;7745;48.708;9.026;2023-02-17T01:11:23;7.80;99.90
15288;DHT22;7745;48.708;9.026;2023-02-17T01:13:52;8.00;99.90
15288;DHT22;7745;48.708;9.026;2023-02-17T01:16:21;7.90;99.90
15288;DHT22;7745;48.708;9.026;2023-02-17T01:18:48;7.90;99.90
15288;DHT22;7745;48.708;9.026;2023-02-17T01:21:16;7.90;99.90
15288;DHT22;7745;48.708;9.026;2023-02-17T01:23:42;8.20;99.90
15288;DHT22;7745;48.708;9.026;2023-02-17T01:26:12;8.00;99.90
15288;DHT22;7745;48.708;9.026;2023-02-17T01:28:39;8.10;99.90
15288;DHT22;7745;48.708;9.026;2023-02-17T01:31:09;8.00;99.90
15288;DHT22;7745;48.708;9.026;2023-02-17T01:33:37;8.00;99.90
15288;DHT22;7745;48.708;9.026;2023-02-17T01:36:06;8.00;99.90
15288;DHT22;7745;48.708;9.026;2023-02-17T01:38:33;8.00;99.90
15288;DHT22;7745;48.708;9.026;2023-02-17T01:41:01;8.00;99.90
15288;DHT22;7745;48.708;9.026;2023-02-17T01:43:28;8.00;99.90
15288;DHT22;7745;48.708;9.026;2023-02-17T01:45:56;8.00;99.90
15288;DHT22;7745;48.708;9.026;2023-02-17T01:48:28;7.90;99.90
15288;DHT22;7745;48.708;9.026;2023-02-17T01:50:59;8.00;99.90
15288;DHT22;7745;48.708;9.026;2023-02-17T01:53:31;7.90;99.90
15288;DHT22;7745;48.708;9.026;2023-02-17T01:55:59;7.90;99.90
15288;DHT22;7745;48.708;9.026;2023-02-17T01:58:26;7.90;99.90
15288;DHT22;7745;48.708;9.026;2023-02-17T02:00:55;8.10;99.90
15288;DHT22;7745;48.708;9.026;2023-02-17T02:03:27;7.90;99.90
15288;DHT22;7745;48.708;9.026;2023-02-17T02:05:56;7.90;99.90
15288;DHT22;7745;48.708;9.026;2023-02-17T02:08:23;7.90;99.90
15288;DHT22;7745;48.708;9.026;2023-02-17T02:10:50;7.90;99.90
15288;DHT22;7745;48.708;9.026;2023-02-17T02:13:17;7.90;99.90
15288;DHT22;7745;48.708;9.026;2023-02-17T02:15:50;7.90;99.90
15288;DHT22;7745;48.708;9.026;2023-02-17T02:18:35;7.90;99.90
15288;DHT22;7745;48.708;9.026;2023-02-17T02:24:20;7.90;99.90
15288;DHT22;7745;48.708;9.026;2023-02-17T02:27:24;7.90;99.90
15288;DHT22;7745;48.708;9.026;2023-02-17T02:32:56;8.00;99.90
15288;DHT22;7745;48.708;9.026;2023-02-17T02:35:28;8.00;99.90
15288;DHT22;7745;48.708;9.026;2023-02-17T02:37:59;8.00;99.90
15288;DHT22;7745;48.708;9.026;2023-02-17T02:40:31;8.00;99.90
15288;DHT22;7745;48.708;9.026;2023-02-17T02:43:03;8.10;99.90
15288;DHT22;7745;48.708;9.026;2023-02-17T02:45:30;8.10;99.90
15288;DHT22;7745;48.708;9.026;2023-02-17T02:48:00;8.10;99.90
15288;DHT22;7745;48.708;9.026;2023-02-17T02:50:38;8.20;99.90
15288;DHT22;7745;48.708;9.026;2023-02-17T02:53:29;8.10;99.90
15288;DHT22;7745;48.708;9.026;2023-02-17T02:56:06;8.10;99.90
15288;DHT22;7745;48.708;9.026;2023-02-17T02:58:45;8.10;99.90
15288;DHT22;7745;48.708;9.026;2023-02-17T03:01:19;8.20;99.90
15288;DHT22;7745;48.708;9.026;2023-02-17T03:03:59;8.00;99.90
15288;DHT22;7745;48.708;9.026;2023-02-17T03:06:35;8.00;99.90
15288;DHT22;7745;48.708;9.026;2023-02-17T03:09:06;8.00;99.90
15288;DHT22;7745;48.708;9.026;2023-02-17T03:11:34;7.90;99.90
15288;DHT22;7745;48.708;9.026;2023-02-17T03:14:02;7.90;99.90
15288;DHT22;7745;48.708;9.026;2023-02-17T03:16:30;7.90;99.90
15288;DHT22;7745;48.708;9.026;2023-02-17T03:18:59;8.00;99.90
15288;DHT22;7745;48.708;9.026;2023-02-17T03:21:32;8.00;99.90
15288;DHT22;7745;48.708;9.026;2023-02-17T03:23:59;8.00;99.90
15288;DHT22;7745;48.708;9.026;2023-02-17T03:26:26;8.00;99.90
15288;DHT22;7745;48.708;9.026;2023-02-17T03:28:53;8.00;99.90
15288;DHT22;7745;48.708;9.026;2023-02-17T03:31:21;8.30;99.90
15288;DHT22;7745;48.708;9.026;2023-02-17T03:33:48;8.00;99.90
15288;DHT22;7745;48.708;9.026;2023-02-17T03:36:16;8.00;99.90
15288;DHT22;7745;48.708;9.026;2023-02-17T03:38:43;8.00;99.90
15288;DHT22;7745;48.708;9.026;2023-02-17T03:41:10;8.00;99.90
15288;DHT22;7745;48.708;9.026;2023-02-17T03:43:38;7.90;99.90
15288;DHT22;7745;48.708;9.026;2023-02-17T03:46:09;7.90;99.90
15288;DHT22;7745;48.708;9.026;2023-02-17T03:48:36;7.80;99.90
15288;DHT22;7745;48.708;9.026;2023-02-17T03:51:09;7.80;99.90
15288;DHT22;7745;48.708;9.026;2023-02-17T03:53:38;7.80;99.90
15288;DHT22;7745;48.708;9.026;2023-02-17T03:56:05;7.80;99.90
15288;DHT22;7745;48.708;9.026;2023-02-17T03:58:32;7.90;99.90
15288;DHT22;7745;48.708;9.026;2023-02-17T04:00:59;8.10;99.90
15288;DHT22;7745;48.708;9.026;2023-02-17T04:03:26;8.00;99.90
15288;DHT22;7745;48.708;9.026;2023-02-17T04:05:52;7.90;99.90
15288;DHT22;7745;48.708;9.026;2023-02-17T04:08:20;7.90;99.90
15288;DHT22;7745;48.708;9.026;2023-02-17T04:10:51;7.90;99.90
15288;DHT22;7745;48.708;9.026;2023-02-17T04:13:18;7.90;99.90
15288;DHT22;7745;48.708;9.026;2023-02-17T04:15:45;8.00;99.90
15288;DHT22;7745;48.708;9.026;2023-02-17T04:18:12;8.00;99.90
15288;DHT22;7745;48.708;9.026;2023-02-17T04:20:39;8.00;99.90
15288;DHT22;7745;48.708;9.026;2023-02-17T04:23:06;7.90;99.90
15288;DHT22;7745;48.708;9.026;2023-02-17T04:25:34;8.00;99.90
15288;DHT22;7745;48.708;9.026;2023-02-17T04:28:02;8.00;99.90
15288;DHT22;7745;48.708;9.026;2023-02-17T04:30:30;8.00;99.90
15288;DHT22;7745;48.708;9.026;2023-02-17T04:32:57;8.00;99.90
15288;DHT22;7745;48.708;9.026;2023-02-17T04:35:23;8.20;99.90
15288;DHT22;7745;48.708;9.026;2023-02-17T04:37:50;8.20;99.90
15288;DHT22;7745;48.708;9.026;2023-02-17T04:40:18;8.40;99.90
15288;DHT22;7745;48.708;9.026;2023-02-17T04:42:45;8.30;99.90
15288;DHT22;7745;48.708;9.026;2023-02-17T04:45:14;8.40;99.90
15288;DHT22;7745;48.708;9.026;2023-02-17T04:47:41;8.40;99.90
15288;DHT22;7745;48.708;9.026;2023-02-17T04:50:09;8.50;99.90
15288;DHT22;7745;48.708;9.026;2023-02-17T04:52:36;8.50;99.90
15288;DHT22;7745;48.708;9.026;2023-02-17T04:55:04;8.50;99.90
15288;DHT22;7745;48.708;9.026;2023-02-17T04:57:31;8.50;99.90
15288;DHT22;7745;48.708;9.026;2023-02-17T04:59:58;8.50;99.90
15288;DHT22;7745;48.708;9.026;2023-02-17T05:02:27;8.50;99.90
15288;DHT22;7745;48.708;9.026;2023-02-17T05:04:55;8.50;99.90
15288;DHT22;7745;48.708;9.026;2023-02-17T05:07:22;8.50;99.90
15288;DHT22;7745;48.708;9.026;2023-02-17T05:09:49;8.50;99.90
15288;DHT22;7745;48.708;9.026;2023-02-17T05:12:15;8.50;99.90
15288;DHT22;7745;48.708;9.026;2023-02-17T05:14:42;8.80;99.90
15288;DHT22;7745;48.708;9.026;2023-02-17T05:17:09;8.60;99.90
15288;DHT22;7745;48.708;9.026;2023-02-17T05:19:37;8.60;99.90
15288;DHT22;7745;48.708;9.026;2023-02-17T05:22:04;8.50;99.90
15288;DHT22;7745;48.708;9.026;2023-02-17T05:24:31;8.60;99.90
15288;DHT22;7745;48.708;9.026;2023-02-17T05:26:57;8.50;99.90
15288;DHT22;7745;48.708;9.026;2023-02-17T05:29:24;8.50;99.90
15288;DHT22;7745;48.708;9.026;2023-02-17T05:31:51;8.70;99.90
15288;DHT22;7745;48.708;9.026;2023-02-17T05:34:17;8.60;99.90
15288;DHT22;7745;48.708;9.026;2023-02-17T05:36:46;8.60;99.90
15288;DHT22;7745;48.708;9.026;2023-02-17T05:39:13;8.60;99.90
15288;DHT22;7745;48.708;9.026;2023-02-17T05:41:40;8.60;99.90
15288;DHT22;7745;48.708;9.026;2023-02-17T05:44:06;8.70;99.90
15288;DHT22;7745;48.708;9.026;2023-02-17T05:46:33;8.60;99.90
15288;DHT22;7745;48.708;9.026;2023-02-17T05:49:01;8.60;99.90
15288;DHT22;7745;48.708;9.026;2023-02-17T05:51:27;8.60;99.90
15288;DHT22;7745;48.708;9.026;2023-02-17T05:53:56;8.60;99.90
15288;DHT22;7745;48.708;9.026;2023-02-17T05:56:23;8.70;99.90
15288;DHT22;7745;48.708;9.026;2023-02-17T05:58:50;8.70;99.90
15288;DHT22;7745;48.708;9.026;2023-02-17T06:01:16;8.90;99.90
15288;DHT22;7745;48.708;9.026;2023-02-17T06:03:43;8.90;99.90
15288;DHT22;7745;48.708;9.026;2023-02-17T06:06:10;8.70;99.90
15288;DHT22;7745;48.708;9.026;2023-02-17T06:08:37;8.70;99.90
15288;DHT22;7745;48.708;9.026;2023-02-17T06:11:06;8.60;99.90
15288;DHT22;7745;48.708;9.026;2023-02-17T06:13:33;8.60;99.90
15288;DHT22;7745;48.708;9.026;2023-02-17T06:15:59;8.60;99.90
15288;DHT22;7745;48.708;9.026;2023-02-17T06:18:26;8.60;99.90
15288;DHT22;7745;48.708;9.026;2023-02-17T06:20:54;8.60;99.90
15288;DHT22;7745;48.708;9.026;2023-02-17T06:23:21;8.70;99.90
15288;DHT22;7745;48.708;9.026;2023-02-17T06:25:48;8.50;99.90
15288;DHT22;7745;48.708;9.026;2023-02-17T06:28:16;8.50;99.90
15288;DHT22;7745;48.708;9.026;2023-02-17T06:30:43;8.50;99.90
15288;DHT22;7745;48.708;9.026;2023-02-17T06:33:10;8.50;99.90
15288;DHT22;7745;48.708;9.026;2023-02-17T06:35:37;8.60;99.90
15288;DHT22;7745;48.708;9.026;2023-02-17T06:38:03;8.60;99.90
15288;DHT22;7745;48.708;9.026;2023-02-17T06:40:30;8.60;99.90
15288;DHT22;7745;48.708;9.026;2023-02-17T06:42:57;8.60;99.90
15288;DHT22;7745;48.708;9.026;2023-02-17T06:45:25;8.70;99.90
15288;DHT22;7745;48.708;9.026;2023-02-17T06:47:52;9.00;99.90
15288;DHT22;7745;48.708;9.026;2023-02-17T06:50:19;8.70;99.90
15288;DHT22;7745;48.708;9.026;2023-02-17T06:52:46;8.70;99.90
15288;DHT22;7745;48.708;9.026;2023-02-17T06:55:12;8.80;99.90
15288;DHT22;7745;48.708;9.026;2023-02-17T06:57:39;8.80;99.90
15288;DHT22;7745;48.708;9.026;2023-02-17T07:00:07;8.80;99.90
15288;DHT22;7745;48.708;9.026;2023-02-17T07:02:38;8.90;99.90
15288;DHT22;7745;48.708;9.026;2023-02-17T07:05:05;9.00;99.90
15288;DHT22;7745;48.708;9.026;2023-02-17T07:07:32;8.90;99.90
15288;DHT22;7745;48.708;9.026;2023-02-17T07:09:59;9.00;99.90
15288;DHT22;7745;48.708;9.026;2023-02-17T07:12:26;8.90;99.90
15288;DHT22;7745;48.708;9.026;2023-02-17T07:14:53;8.90;99.90
15288;DHT22;7745;48.708;9.026;2023-02-17T07:17:20;8.90;99.90
15288;DHT22;7745;48.708;9.026;2023-02-17T07:19:49;8.90;99.90
15288;DHT22;7745;48.708;9.026;2023-02-17T07:22:15;8.90;99.90
15288;DHT22;7745;48.708;9.026;2023-02-17T07:24:42;8.90;99.90
15288;DHT22;7745;48.708;9.026;2023-02-17T07:27:09;9.00;99.90
15288;DHT22;7745;48.708;9.026;2023-02-17T07:29:36;9.00;99.90
15288;DHT22;7745;48.708;9.026;2023-02-17T07:32:03;9.00;99.90
15288;DHT22;7745;48.708;9.026;2023-02-17T07:34:30;9.00;99.90
15288;DHT22;7745;48.708;9.026;2023-02-17T07:36:58;9.00;99.90
15288;DHT22;7745;48.708;9.026;2023-02-17T07:39:25;9.10;99.90
15288;DHT22;7745;48.708;9.026;2023-02-17T07:41:52;9.10;99.90
15288;DHT22;7745;48.708;9.026;2023-02-17T07:44:18;9.30;99.90
15288;DHT22;7745;48.708;9.026;2023-02-17T07:46:45;9.10;99.90
15288;DHT22;7745;48.708;9.026;2023-02-17T07:49:12;9.10;99.90
15288;DHT22;7745;48.708;9.026;2023-02-17T07:51:39;9.30;99.90
15288;DHT22;7745;48.708;9.026;2023-02-17T07:54:08;9.20;99.90
15288;DHT22;7745;48.708;9.026;2023-02-17T07:56:35;9.20;99.90
15288;DHT22;7745;48.708;9.026;2023-02-17T07:59:01;9.30;99.90
15288;DHT22;7745;48.708;9.026;2023-02-17T08:01:28;9.40;99.90
15288;DHT22;7745;48.708;9.026;2023-02-17T08:03:55;9.50;99.90
15288;DHT22;7745;48.708;9.026;2023-02-17T08:06:24;9.30;99.90
15288;DHT22;7745;48.708;9.026;2023-02-17T08:08:51;9.30;99.90
15288;DHT22;7745;48.708;9.026;2023-02-17T08:11:38;9.30;99.90
15288;DHT22;7745;48.708;9.026;2023-02-17T08:14:24;9.30;99.90
15288;DHT22;7745;48.708;9.026;2023-02-17T08:16:51;9.30;99.90
15288;DHT22;7745;48.708;9.026;2023-02-17T08:19:18;9.40;99.90
15288;DHT22;7745;48.708;9.026;2023-02-17T08:21:45;9.40;99.90
15288;DHT22;7745;48.708;9.026;2023-02-17T08:24:12;9.60;99.90
15288;DHT22;7745;48.708;9.026;2023-02-17T08:26:42;9.50;99.90
15288;DHT22;7745;48.708;9.026;2023-02-17T08:29:08;9.50;99.90
15288;DHT22;7745;48.708;9.026;2023-02-17T08:31:36;9.50;99.90
15288;DHT22;7745;48.708;9.026;2023-02-17T08:34:04;9.50;99.90
15288;DHT22;7745;48.708;9.026;2023-02-17T08:36:32;9.50;99.90
15288;DHT22;7745;48.708;9.026;2023-02-17T08:38:59;9.50;99.90
15288;DHT22;7745;48.708;9.026;2023-02-17T08:41:29;9.50;99.90
15288;DHT22;7745;48.708;9.026;2023-02-17T08:43:58;9.60;99.90
15288;DHT22;7745;48.708;9.026;2023-02-17T08:46:26;9.60;99.90
15288;DHT22;7745;48.708;9.026;2023-02-17T08:48:54;9.60;99.90
15288;DHT22;7745;48.708;9.026;2023-02-17T08:51:23;9.70;99.90
15288;DHT22;7745;48.708;9.026;2023-02-17T08:53:52;9.70;99.90
15288;DHT22;7745;48.708;9.026;2023-02-17T08:56:19;9.70;99.90
15288;DHT22;7745;48.708;9.026;2023-02-17T08:58:47;9.80;99.90
15288;DHT22;7745;48.708;9.026;2023-02-17T09:01:16;9.70;99.90
15288;DHT22;7745;48.708;9.026;2023-02-17T09:03:44;9.80;99.90
15288;DHT22;7745;48.708;9.026;2023-02-17T09:06:11;9.80;99.90
15288;DHT22;7745;48.708;9.026;2023-02-17T09:08:38;9.70;99.90
15288;DHT22;7745;48.708;9.026;2023-02-17T09:11:06;9.90;99.90
15288;DHT22;7745;48.708;9.026;2023-02-17T09:13:33;9.70;99.90
15288;DHT22;7745;48.708;9.026;2023-02-17T09:16:00;9.70;99.90
15288;DHT22;7745;48.708;9.026;2023-02-17T09:18:28;9.70;99.90
15288;DHT22;7745;48.708;9.026;2023-02-17T09:20:55;9.70;99.90
15288;DHT22;7745;48.708;9.026;2023-02-17T09:23:22;9.80;99.90
15288;DHT22;7745;48.708;9.026;2023-02-17T09:25:49;9.80;99.90
15288;DHT22;7745;48.708;9.026;2023-02-17T09:28:16;9.90;99.90
15288;DHT22;7745;48.708;9.026;2023-02-17T09:30:43;10.00;99.90
15288;DHT22;7745;48.708;9.026;2023-02-17T09:33:09;10.10;99.90
15288;DHT22;7745;48.708;9.026;2023-02-17T09:35:38;10.00;99.90
15288;DHT22;7745;48.708;9.026;2023-02-17T09:38:05;10.10;99.90
15288;DHT22;7745;48.708;9.026;2023-02-17T09:40:40;10.30;99.90
15288;DHT22;7745;48.708;9.026;2023-02-17T09:43:11;10.30;99.90
15288;DHT22;7745;48.708;9.026;2023-02-17T09:45:43;10.20;99.90
15288;DHT22;7745;48.708;9.026;2023-02-17T09:48:13;10.30;99.90
15288;DHT22;7745;48.708;9.026;2023-02-17T09:50:48;10.30;99.90
15288;DHT22;7745;48.708;9.026;2023-02-17T09:53:21;10.60;99.90
15288;DHT22;7745;48.708;9.026;2023-02-17T09:55:52;10.40;99.90
15288;DHT22;7745;48.708;9.026;2023-02-17T09:58:24;10.50;99.90
15288;DHT22;7745;48.708;9.026;2023-02-17T10:00:55;10.70;99.90
15288;DHT22;7745;48.708;9.026;2023-02-17T10:03:25;10.90;99.90
15288;DHT22;7745;48.708;9.026;2023-02-17T10:06:04;10.80;99.90
15288;DHT22;7745;48.708;9.026;2023-02-17T10:08:39;10.90;99.90
15288;DHT22;7745;48.708;9.026;2023-02-17T10:11:15;11.20;99.90
15288;DHT22;7745;48.708;9.026;2023-02-17T10:13:45;11.20;99.90
15288;DHT22;7745;48.708;9.026;2023-02-17T10:16:19;11.40;99.90
15288;DHT22;7745;48.708;9.026;2023-02-17T10:18:51;11.20;99.90
15288;DHT22;7745;48.708;9.026;2023-02-17T10:21:26;11.10;99.90
15288;DHT22;7745;48.708;9.026;2023-02-17T10:23:53;11.00;99.90
15288;DHT22;7745;48.708;9.026;2023-02-17T10:26:25;11.00;99.90
15288;DHT22;7745;48.708;9.026;2023-02-17T10:28:58;11.10;99.90
15288;DHT22;7745;48.708;9.026;2023-02-17T10:31:37;11.10;99.90
15288;DHT22;7745;48.708;9.026;2023-02-17T10:34:11;11.10;99.90
15288;DHT22;7745;48.708;9.026;2023-02-17T10:36:47;11.00;99.90
15288;DHT22;7745;48.708;9.026;2023-02-17T10:39:31;11.20;99.90
15288;DHT22;7745;48.708;9.026;2023-02-17T10:42:01;11.40;99.90
15288;DHT22;7745;48.708;9.026;2023-02-17T10:44:29;11.60;99.90
15288;DHT22;7745;48.708;9.026;2023-02-17T10:46:59;11.70;99.90
15288;DHT22;7745;48.708;9.026;2023-02-17T10:49:28;11.90;99.90
15288;DHT22;7745;48.708;9.026;2023-02-17T10:52:00;12.00;99.90
15288;DHT22;7745;48.708;9.026;2023-02-17T10:54:31;12.00;99.90
15288;DHT22;7745;48.708;9.026;2023-02-17T10:57:02;12.10;99.90
15288;DHT22;7745;48.708;9.026;2023-02-17T10:59:32;12.20;99.90
15288;DHT22;7745;48.708;9.026;2023-02-17T11:02:14;12.30;99.90
15288;DHT22;7745;48.708;9.026;2023-02-17T11:04:42;12.30;99.90
15288;DHT22;7745;48.708;9.026;2023-02-17T11:07:13;12.40;99.90
15288;DHT22;7745;48.708;9.026;2023-02-17T11:09:46;12.40;99.90
15288;DHT22;7745;48.708;9.026;2023-02-17T11:12:15;12.70;99.90
15288;DHT22;7745;48.708;9.026;2023-02-17T11:14:44;12.60;99.90
15288;DHT22;7745;48.708;9.026;2023-02-17T11:17:15;12.70;99.90
15288;DHT22;7745;48.708;9.026;2023-02-17T11:19:54;12.90;99.90
15288;DHT22;7745;48.708;9.026;2023-02-17T11:22:31;12.90;99.90
15288;DHT22;7745;48.708;9.026;2023-02-17T11:24:58;13.00;99.90
15288;DHT22;7745;48.708;9.026;2023-02-17T11:27:26;13.00;99.90
15288;DHT22;7745;48.708;9.026;2023-02-17T11:29:52;13.10;99.90
15288;DHT22;7745;48.708;9.026;2023-02-17T11:32:30;13.20;99.90
15288;DHT22;7745;48.708;9.026;2023-02-17T11:34:58;12.80;99.90
15288;DHT22;7745;48.708;9.026;2023-02-17T11:37:30;12.80;99.90
15288;DHT22;7745;48.708;9.026;2023-02-17T11:39:59;12.70;99.90
15288;DHT22;7745;48.708;9.026;2023-02-17T11:42:27;12.50;99.90
15288;DHT22;7745;48.708;9.026;2023-02-17T11:44:56;12.30;99.90
15288;DHT22;7745;48.708;9.026;2023-02-17T11:47:31;12.20;99.90
15288;DHT22;7745;48.708;9.026;2023-02-17T11:50:18;12.10;99.90
15288;DHT22;7745;48.708;9.026;2023-02-17T11:52:59;12.10;99.90
15288;DHT22;7745;48.708;9.026;2023-02-17T11:55:47;12.20;99.90
15288;DHT22;7745;48.708;9.026;2023-02-17T11:58:25;12.20;99.90
15288;DHT22;7745;48.708;9.026;2023-02-17T12:01:02;12.00;99.90
15288;DHT22;7745;48.708;9.026;2023-02-17T12:03:48;12.00;99.90
15288;DHT22;7745;48.708;9.026;2023-02-17T12:06:21;12.00;99.90
15288;DHT22;7745;48.708;9.026;2023-02-17T12:09:04;11.90;99.90
15288;DHT22;7745;48.708;9.026;2023-02-17T12:11:41;11.90;99.90
15288;DHT22;7745;48.708;9.026;2023-02-17T12:14:24;12.00;99.90
15288;DHT22;7745;48.708;9.026;2023-02-17T12:17:01;12.00;99.90
15288;DHT22;7745;48.708;9.026;2023-02-17T12:19:37;11.90;99.90
15288;DHT22;7745;48.708;9.026;2023-02-17T12:22:16;12.00;99.90
15288;DHT22;7745;48.708;9.026;2023-02-17T12:24:55;12.10;99.90
15288;DHT22;7745;48.708;9.026;2023-02-17T12:27:36;12.10;99.90
15288;DHT22;7745;48.708;9.026;2023-02-17T12:30:21;12.10;99.90
15288;DHT22;7745;48.708;9.026;2023-02-17T12:33:06;12.10;99.90
15288;DHT22;7745;48.708;9.026;2023-02-17T12:35:41;12.20;99.90
15288;DHT22;7745;48.708;9.026;2023-02-17T12:38:15;12.10;99.90
15288;DHT22;7745;48.708;9.026;2023-02-17T12:40:46;12.20;99.90
15288;DHT22;7745;48.708;9.026;2023-02-17T12:43:21;12.50;99.90
15288;DHT22;7745;48.708;9.026;2023-02-17T12:45:52;12.20;99.90
15288;DHT22;7745;48.708;9.026;2023-02-17T12:48:24;12.30;99.90
15288;DHT22;7745;48.708;9.026;2023-02-17T12:50:57;12.40;99.90
15288;DHT22;7745;48.708;9.026;2023-02-17T12:53:38;12.50;99.90
15288;DHT22;7745;48.708;9.026;2023-02-17T12:59:16;12.50;99.90
15288;DHT22;7745;48.708;9.026;2023-02-17T13:01:53;12.40;99.90
15288;DHT22;7745;48.708;9.026;2023-02-17T13:04:22;12.40;99.90
15288;DHT22;7745;48.708;9.026;2023-02-17T13:06:55;12.40;99.90
15288;DHT22;7745;48.708;9.026;2023-02-17T13:09:29;12.50;99.90
15288;DHT22;7745;48.708;9.026;2023-02-17T13:12:13;12.50;99.90
15288;DHT22;7745;48.708;9.026;2023-02-17T13:14:43;12.60;99.90
15288;DHT22;7745;48.708;9.026;2023-02-17T13:17:25;12.60;99.90
15288;DHT22;7745;48.708;9.026;2023-02-17T13:20:25;12.60;99.90
15288;DHT22;7745;48.708;9.026;2023-02-17T13:23:04;12.60;99.90
15288;DHT22;7745;48.708;9.026;2023-02-17T13:25:33;12.60;99.90
15288;DHT22;7745;48.708;9.026;2023-02-17T13:28:29;12.60;99.90
15288;DHT22;7745;48.708;9.026;2023-02-17T13:31:11;12.60;99.90
15288;DHT22;7745;48.708;9.026;2023-02-17T13:33:41;12.60;99.90
15288;DHT22;7745;48.708;9.026;2023-02-17T13:36:14;12.70;99.90
15288;DHT22;7745;48.708;9.026;2023-02-17T13:38:53;12.70;99.90
15288;DHT22;7745;48.708;9.026;2023-02-17T13:41:21;12.80;99.90
15288;DHT22;7745;48.708;9.026;2023-02-17T13:43:50;12.80;99.90
15288;DHT22;7745;48.708;9.026;2023-02-17T13:46:20;12.80;99.90
15288;DHT22;7745;48.708;9.026;2023-02-17T13:49:00;12.70;99.90
15288;DHT22;7745;48.708;9.026;2023-02-17T13:51:29;12.80;99.90
15288;DHT22;7745;48.708;9.026;2023-02-17T13:54:04;12.90;99.90
15288;DHT22;7745;48.708;9.026;2023-02-17T13:56:31;13.00;99.90
15288;DHT22;7745;48.708;9.026;2023-02-17T13:59:08;13.00;99.90
15288;DHT22;7745;48.708;9.026;2023-02-17T14:01:36;13.10;99.90
15288;DHT22;7745;48.708;9.026;2023-02-17T14:04:20;13.00;99.90
15288;DHT22;7745;48.708;9.026;2023-02-17T14:06:48;13.00;99.90
15288;DHT22;7745;48.708;9.026;2023-02-17T14:09:24;13.00;99.90
15288;DHT22;7745;48.708;9.026;2023-02-17T14:11:52;13.00;99.90
15288;DHT22;7745;48.708;9.026;2023-02-17T14:14:22;12.90;99.90
15288;DHT22;7745;48.708;9.026;2023-02-17T14:17:00;12.90;99.90
15288;DHT22;7745;48.708;9.026;2023-02-17T14:19:28;13.00;99.90
15288;DHT22;7745;48.708;9.026;2023-02-17T14:22:00;13.00;99.90
15288;DHT22;7745;48.708;9.026;2023-02-17T14:24:31;13.00;99.90
15288;DHT22;7745;48.708;9.026;2023-02-17T14:27:01;13.00;99.90
15288;DHT22;7745;48.708;9.026;2023-02-17T14:29:40;13.00;99.90
15288;DHT22;7745;48.708;9.026;2023-02-17T14:32:25;12.90;99.90
15288;DHT22;7745;48.708;9.026;2023-02-17T14:34:52;12.90;99.90
15288;DHT22;7745;48.708;9.026;2023-02-17T14:37:22;12.90;99.90
15288;DHT22;7745;48.708;9.026;2023-02-17T14:39:49;12.80;99.90
15288;DHT22;7745;48.708;9.026;2023-02-17T14:42:16;12.80;99.90
15288;DHT22;7745;48.708;9.026;2023-02-17T14:44:44;12.70;99.90
15288;DHT22;7745;48.708;9.026;2023-02-17T14:47:11;12.70;99.90
15288;DHT22;7745;48.708;9.026;2023-02-17T14:49:38;12.60;99.90
15288;DHT22;7745;48.708;9.026;2023-02-17T14:52:16;12.60;99.90
15288;DHT22;7745;48.708;9.026;2023-02-17T14:54:43;12.60;99.90
15288;DHT22;7745;48.708;9.026;2023-02-17T14:57:11;12.50;99.90
15288;DHT22;7745;48.708;9.026;2023-02-17T14:59:39;12.50;99.90
15288;DHT22;7745;48.708;9.026;2023-02-17T15:02:18;12.60;99.90
15288;DHT22;7745;48.708;9.026;2023-02-17T15:04:45;12.40;99.90
15288;DHT22;7745;48.708;9.026;2023-02-17T15:07:14;12.70;99.90
15288;DHT22;7745;48.708;9.026;2023-02-17T15:09:43;12.50;99.90
15288;DHT22;7745;48.708;9.026;2023-02-17T15:12:13;12.60;99.90
15288;DHT22;7745;48.708;9.026;2023-02-17T15:14:40;12.70;99.90
15288;DHT22;7745;48.708;9.026;2023-02-17T15:17:08;12.70;99.90
15288;DHT22;7745;48.708;9.026;2023-02-17T15:19:36;13.00;99.90
15288;DHT22;7745;48.708;9.026;2023-02-17T15:22:03;12.80;99.90
15288;DHT22;7745;48.708;9.026;2023-02-17T15:24:32;12.70;99.90
15288;DHT22;7745;48.708;9.026;2023-02-17T15:26:59;12.70;99.90
15288;DHT22;7745;48.708;9.026;2023-02-17T15:29:27;12.60;99.90
15288;DHT22;7745;48.708;9.026;2023-02-17T15:31:55;12.50;99.90
15288;DHT22;7745;48.708;9.026;2023-02-17T15:34:24;12.40;99.90
15288;DHT22;7745;48.708;9.026;2023-02-17T15:36:55;12.30;99.90
15288;DHT22;7745;48.708;9.026;2023-02-17T15:39:21;12.30;99.90
15288;DHT22;7745;48.708;9.026;2023-02-17T15:41:49;12.20;99.90
15288;DHT22;7745;48.708;9.026;2023-02-17T15:44:19;12.10;99.90
15288;DHT22;7745;48.708;9.026;2023-02-17T15:46:49;12.10;99.90
15288;DHT22;7745;48.708;9.026;2023-02-17T15:49:16;12.10;99.90
15288;DHT22;7745;48.708;9.026;2023-02-17T15:51:43;12.00;99.90
15288;DHT22;7745;48.708;9.026;2023-02-17T15:54:11;12.00;99.90
15288;DHT22;7745;48.708;9.026;2023-02-17T15:56:43;12.00;99.90
15288;DHT22;7745;48.708;9.026;2023-02-17T15:59:15;12.00;99.90
15288;DHT22;7745;48.708;9.026;2023-02-17T16:01:42;12.00;99.90
15288;DHT22;7745;48.708;9.026;2023-02-17T16:04:10;12.00;99.90
15288;DHT22;7745;48.708;9.026;2023-02-17T16:06:37;11.90;99.90
15288;DHT22;7745;48.708;9.026;2023-02-17T16:09:04;11.90;99.90
15288;DHT22;7745;48.708;9.026;2023-02-17T16:11:33;11.90;99.90
15288;DHT22;7745;48.708;9.026;2023-02-17T16:14:00;11.90;99.90
15288;DHT22;7745;48.708;9.026;2023-02-17T16:16:29;11.90;99.90
15288;DHT22;7745;48.708;9.026;2023-02-17T16:18:57;11.90;99.90
15288;DHT22;7745;48.708;9.026;2023-02-17T16:21:24;11.80;99.90
15288;DHT22;7745;48.708;9.026;2023-02-17T16:23:51;11.80;99.90